Time;durP1;ratioP1;P1;durP2;ratioP2;P2;SDS_P1;SDS_P2;PMS_P1;PMS_P2;Temp;Humidity;BMP_temperature;BMP_pressure;BME280_temperature;BME280_humidity;BME280_pressure;Samples;Min_cycle;Max_cycle;Signal;HPM_P1;HPM_P2
2021/05/24 00:00:30;;;;;;;49.00;6.75;;;27.30;36.40;;;;;;4372549;32;20627;-37
2021/05/24 00:02:57;;;;;;;52.95;7.10;;;27.40;35.70;;;;;;4372815;32;20175;-38
2021/05/24 00:05:27;;;;;;;62.83;8.98;;;27.40;34.30;;;;;;4360406;32;20154;-38
2021/05/24 00:07:53;;;;;;;66.90;8.40;;;27.40;32.90;;;;;;4372881;32;20070;-38
2021/05/24 00:10:26;;;;;;;72.30;9.85;;;27.30;31.90;;;;;;4372607;32;20162;-38
2021/05/24 00:12:53;;;;;;;90.80;10.20;;;27.30;31.20;;;;;;4372735;32;20074;-38
2021/05/24 00:15:32;;;;;;;86.55;9.55;;;27.30;30.70;;;;;;4372695;32;20059;-37
2021/05/24 00:17:58;;;;;;;81.40;9.27;;;27.30;30.20;;;;;;4360028;32;20082;-37
2021/05/24 00:20:30;;;;;;;79.05;11.02;;;27.20;29.90;;;;;;4372971;32;20066;-38
2021/05/24 00:22:56;;;;;;;79.68;10.60;;;27.20;29.80;;;;;;4372270;32;20142;-38
2021/05/24 00:25:23;;;;;;;81.20;9.43;;;27.20;29.60;;;;;;4359575;32;20171;-38
2021/05/24 00:27:50;;;;;;;79.12;8.75;;;27.20;29.80;;;;;;4371697;32;20182;-39
2021/05/24 00:30:17;;;;;;;91.20;9.23;;;27.20;29.90;;;;;;4357228;32;20074;-37
2021/05/24 00:32:43;;;;;;;89.20;8.88;;;27.20;29.90;;;;;;4372393;32;20062;-38
2021/05/24 00:35:11;;;;;;;81.95;10.75;;;27.20;29.80;;;;;;4371845;32;20549;-38
2021/05/24 00:37:38;;;;;;;80.18;9.77;;;27.20;30.00;;;;;;4372020;32;20066;-37
2021/05/24 00:40:06;;;;;;;71.43;9.98;;;27.20;29.70;;;;;;4372464;32;20070;-38
2021/05/24 00:42:33;;;;;;;74.28;8.63;;;27.20;29.70;;;;;;4372213;32;20147;-38
2021/05/24 00:45:01;;;;;;;83.72;9.05;;;27.20;29.50;;;;;;4372003;32;20175;-38
2021/05/24 00:47:27;;;;;;;85.20;10.60;;;27.20;29.50;;;;;;4359731;32;20074;-36
2021/05/24 00:49:54;;;;;;;74.90;10.40;;;27.30;29.60;;;;;;4372243;32;20068;-38
2021/05/24 00:52:20;;;;;;;84.13;10.70;;;27.30;29.50;;;;;;4372071;32;20158;-37
2021/05/24 00:54:47;;;;;;;70.78;10.05;;;27.40;29.50;;;;;;4341692;33;20064;-38
2021/05/24 00:57:13;;;;;;;86.10;8.60;;;27.40;29.40;;;;;;4342144;33;20091;-37
2021/05/24 00:59:39;;;;;;;63.47;10.05;;;27.60;30.00;;;;;;4342020;33;20625;-38
2021/05/24 01:02:06;;;;;;;65.75;9.43;;;27.70;30.50;;;;;;4341866;33;20059;-38
2021/05/24 01:04:35;;;;;;;74.47;11.38;;;27.80;31.10;;;;;;4342330;33;20066;-37
2021/05/24 01:07:02;;;;;;;86.78;10.75;;;28.00;30.50;;;;;;4344899;32;20069;-38
2021/05/24 01:09:29;;;;;;;79.28;9.30;;;28.10;30.10;;;;;;4356893;32;20066;-39
2021/05/24 01:11:55;;;;;;;78.15;7.55;;;28.10;30.00;;;;;;4356604;32;20077;-37
2021/05/24 01:14:22;;;;;;;83.00;8.65;;;28.20;29.90;;;;;;4326523;33;20170;-37
2021/05/24 01:16:51;;;;;;;80.22;8.57;;;28.20;30.80;;;;;;4326901;33;20070;-38
2021/05/24 01:19:18;;;;;;;60.22;7.60;;;28.30;30.90;;;;;;4326874;33;20133;-39
2021/05/24 01:21:45;;;;;;;52.65;7.12;;;28.40;30.60;;;;;;4325465;33;20126;-39
2021/05/24 01:24:12;;;;;;;49.75;7.20;;;28.50;30.70;;;;;;4329406;33;20226;-38
2021/05/24 01:26:39;;;;;;;64.82;8.82;;;28.70;30.90;;;;;;4367125;32;20093;-38
2021/05/24 01:29:06;;;;;;;59.47;8.27;;;28.80;31.20;;;;;;4371587;32;20096;-38
2021/05/24 01:31:32;;;;;;;62.92;6.28;;;29.00;31.40;;;;;;4371391;32;20525;-39
2021/05/24 01:33:59;;;;;;;50.17;6.60;;;29.10;32.50;;;;;;4371550;32;20057;-39
2021/05/24 01:36:26;;;;;;;61.22;8.20;;;29.20;32.30;;;;;;4370960;32;20074;-39
2021/05/24 01:38:53;;;;;;;59.50;10.13;;;29.30;32.10;;;;;;4371330;32;20228;-38
2021/05/24 01:41:19;;;;;;;44.65;5.82;;;29.50;32.00;;;;;;4371589;32;20530;-38
2021/05/24 01:43:46;;;;;;;67.62;9.52;;;29.50;32.10;;;;;;4371379;32;20090;-39
2021/05/24 01:46:12;;;;;;;65.25;8.07;;;29.60;32.10;;;;;;4370914;32;20510;-38
2021/05/24 01:48:39;;;;;;;53.90;7.87;;;29.80;31.90;;;;;;4371105;32;20070;-38
2021/05/24 01:51:06;;;;;;;52.30;7.97;;;29.90;31.60;;;;;;4377849;32;20117;-39
2021/05/24 01:53:33;;;;;;;60.45;9.32;;;30.10;31.60;;;;;;4403453;32;20487;-39
2021/05/24 01:55:59;;;;;;;61.50;9.63;;;30.20;31.70;;;;;;4403456;32;20071;-39
2021/05/24 01:58:27;;;;;;;76.78;12.93;;;30.40;31.60;;;;;;4403726;32;20100;-39
2021/05/24 02:01:14;;;;;;;63.67;8.68;;;30.50;31.60;;;;;;4403555;32;20533;-38
2021/05/24 02:03:40;;;;;;;65.05;7.97;;;30.60;31.80;;;;;;4403661;32;20109;-39
2021/05/24 02:06:07;;;;;;;58.60;7.60;;;30.90;32.00;;;;;;4403859;32;20066;-38
2021/05/24 02:08:34;;;;;;;58.87;8.32;;;31.00;31.90;;;;;;4403327;32;20061;-38
2021/05/24 02:11:02;;;;;;;54.38;6.15;;;31.10;32.30;;;;;;4389329;32;20097;-38
2021/05/24 02:13:29;;;;;;;55.78;6.45;;;31.20;32.10;;;;;;4403733;32;20069;-38
2021/05/24 02:15:56;;;;;;;36.00;6.60;;;31.30;32.10;;;;;;4389427;32;20076;-37
2021/05/24 02:18:22;;;;;;;38.03;5.18;;;31.40;31.80;;;;;;4403481;32;20153;-38
2021/05/24 02:20:49;;;;;;;45.67;5.10;;;31.40;31.40;;;;;;4383910;32;20082;-38
2021/05/24 02:23:16;;;;;;;42.22;5.45;;;31.40;31.20;;;;;;4374066;32;20166;-39
2021/05/24 02:25:43;;;;;;;52.85;6.87;;;31.30;31.30;;;;;;4355732;32;20245;-39
2021/05/24 02:28:09;;;;;;;42.65;5.22;;;31.20;31.60;;;;;;4343637;32;20086;-38
2021/05/24 02:30:36;;;;;;;41.30;5.30;;;31.10;32.10;;;;;;4355713;32;20093;-39
2021/05/24 02:33:03;;;;;;;31.65;5.55;;;31.20;32.40;;;;;;4355672;32;20063;-39
2021/05/24 02:35:30;;;;;;;39.88;6.12;;;31.30;32.50;;;;;;4342830;32;20680;-40
2021/05/24 02:37:56;;;;;;;46.17;6.85;;;31.40;32.80;;;;;;4342992;32;20078;-39
2021/05/24 02:40:23;;;;;;;41.80;7.12;;;31.40;33.20;;;;;;4355931;32;20066;-40
2021/05/24 02:42:50;;;;;;;51.35;6.15;;;31.30;33.40;;;;;;4355632;32;20069;-38
2021/05/24 02:45:18;;;;;;;34.78;6.32;;;31.20;34.30;;;;;;4355821;32;20078;-38
2021/05/24 02:47:44;;;;;;;29.30;6.00;;;31.10;35.10;;;;;;4355752;32;20112;-39
2021/05/24 02:50:17;;;;;;;41.08;6.62;;;31.10;35.80;;;;;;4355359;32;20067;-40
2021/05/24 02:52:43;;;;;;;35.00;6.78;;;31.00;36.20;;;;;;4355583;32;20183;-40
2021/05/24 02:55:10;;;;;;;23.58;4.97;;;31.10;36.30;;;;;;4355240;32;20519;-39
2021/05/24 02:57:37;;;;;;;21.80;5.10;;;31.10;36.00;;;;;;4383307;32;20527;-39
2021/05/24 03:00:06;;;;;;;15.45;4.35;;;31.10;36.30;;;;;;4388106;32;20065;-38
2021/05/24 03:02:33;;;;;;;15.48;4.43;;;31.10;36.60;;;;;;4387610;32;20156;-39
2021/05/24 03:04:59;;;;;;;9.98;3.65;;;31.10;37.10;;;;;;4373602;32;20145;-39
2021/05/24 03:07:26;;;;;;;10.10;5.53;;;31.20;37.70;;;;;;4387557;32;20564;-39
2021/05/24 03:09:53;;;;;;;17.17;5.22;;;31.20;37.80;;;;;;4355118;32;20082;-38
2021/05/24 03:12:19;;;;;;;5.50;3.87;;;31.30;38.00;;;;;;4355813;32;20157;-39
2021/05/24 03:14:46;;;;;;;8.20;2.45;;;31.30;38.00;;;;;;4355659;32;20672;-38
2021/05/24 03:17:12;;;;;;;7.22;3.60;;;31.30;38.70;;;;;;4355340;32;20146;-39
2021/05/24 03:19:39;;;;;;;9.15;3.22;;;31.20;38.10;;;;;;4355103;32;20074;-39
2021/05/24 03:22:05;;;;;;;6.65;3.78;;;31.20;38.20;;;;;;4367885;32;20824;-40
2021/05/24 03:24:31;;;;;;;7.85;3.37;;;31.20;38.30;;;;;;4370258;32;20134;-39
2021/05/24 03:26:58;;;;;;;11.63;3.60;;;31.20;38.30;;;;;;4370304;32;20073;-39
2021/05/24 03:29:24;;;;;;;11.60;3.95;;;31.30;38.20;;;;;;4370639;32;20066;-39
2021/05/24 03:31:51;;;;;;;12.07;3.40;;;31.30;38.30;;;;;;4370289;32;20147;-39
2021/05/24 03:34:17;;;;;;;11.07;3.60;;;31.30;38.30;;;;;;4370057;32;20062;-38
2021/05/24 03:36:43;;;;;;;4.85;2.20;;;31.30;38.20;;;;;;4370098;32;20499;-39
2021/05/24 03:39:10;;;;;;;13.50;3.05;;;31.40;38.40;;;;;;4369845;32;20077;-39
2021/05/24 03:41:36;;;;;;;3.75;2.33;;;31.30;38.30;;;;;;4370216;32;20470;-39
2021/05/24 03:44:03;;;;;;;8.60;4.70;;;31.40;38.90;;;;;;4370355;32;20158;-38
2021/05/24 03:46:30;;;;;;;18.62;6.10;;;31.40;39.10;;;;;;4375013;32;20068;-38
2021/05/24 03:48:59;;;;;;;12.73;4.60;;;31.30;39.10;;;;;;4388686;32;20069;-38
2021/05/24 03:51:26;;;;;;;12.65;5.53;;;31.20;39.10;;;;;;4403022;32;20081;-39
2021/05/24 03:53:53;;;;;;;8.10;4.05;;;31.10;39.60;;;;;;4402747;32;20563;-38
2021/05/24 03:56:21;;;;;;;9.50;4.47;;;31.00;39.70;;;;;;4388671;32;20068;-38
2021/05/24 03:58:47;;;;;;;12.85;5.45;;;31.00;40.10;;;;;;4402377;32;20579;-39
2021/05/24 04:01:14;;;;;;;3.70;1.98;;;30.90;40.30;;;;;;4402392;32;20464;-38
2021/05/24 04:03:40;;;;;;;7.28;4.75;;;30.80;40.40;;;;;;4389519;32;20131;-39
2021/05/24 04:06:08;;;;;;;8.95;4.90;;;30.60;40.70;;;;;;4391205;32;20077;-37
2021/05/24 04:08:38;;;;;;;14.38;4.50;;;30.50;40.90;;;;;;4391297;32;20158;-38
2021/05/24 04:11:05;;;;;;;10.13;5.18;;;30.40;41.10;;;;;;4405297;32;20489;-37
2021/05/24 04:13:31;;;;;;;9.52;5.43;;;30.30;41.30;;;;;;4405042;32;20065;-37
2021/05/24 04:15:58;;;;;;;3.55;1.80;;;30.20;41.50;;;;;;4405561;32;20069;-39
2021/05/24 04:18:31;;;;;;;1.92;1.83;;;30.10;41.70;;;;;;4391588;32;20061;-38
2021/05/24 04:20:58;;;;;;;1.83;1.52;;;30.00;41.80;;;;;;4399137;32;20154;-37
2021/05/24 04:23:24;;;;;;;9.80;4.53;;;29.90;41.90;;;;;;4376204;32;20082;-39
2021/05/24 04:25:51;;;;;;;9.02;3.90;;;29.90;42.10;;;;;;4389495;32;20077;-39
2021/05/24 04:28:17;;;;;;;19.55;3.42;;;29.80;42.20;;;;;;4375310;32;20519;-38
2021/05/24 04:30:44;;;;;;;4.60;2.58;;;29.80;42.10;;;;;;4389471;32;20561;-38
2021/05/24 04:33:11;;;;;;;9.52;4.18;;;29.70;41.90;;;;;;4389841;32;20105;-38
2021/05/24 04:35:37;;;;;;;5.43;3.42;;;29.70;42.00;;;;;;4389538;32;20070;-38
2021/05/24 04:38:04;;;;;;;12.05;3.65;;;29.80;42.00;;;;;;4389517;32;20062;-39
2021/05/24 04:40:31;;;;;;;0.70;0.68;;;29.80;42.00;;;;;;4389667;32;20061;-39
2021/05/24 04:42:58;;;;;;;3.33;1.30;;;29.80;41.40;;;;;;4375955;32;20061;-38
2021/05/24 04:45:25;;;;;;;3.92;1.50;;;29.80;40.80;;;;;;4375714;32;20143;-39
2021/05/24 04:47:51;;;;;;;8.13;2.65;;;29.90;40.70;;;;;;4362773;32;20664;-38
2021/05/24 04:50:18;;;;;;;4.90;1.05;;;29.90;40.70;;;;;;4389771;32;20081;-37
2021/05/24 04:52:44;;;;;;;4.60;1.67;;;29.90;40.30;;;;;;4389344;32;20073;-39
2021/05/24 04:55:12;;;;;;;0.85;0.70;;;29.90;40.50;;;;;;4389390;32;20156;-38
2021/05/24 04:57:38;;;;;;;3.92;1.75;;;29.90;39.70;;;;;;4389446;32;20545;-37
2021/05/24 05:00:08;;;;;;;3.80;1.08;;;29.90;39.50;;;;;;4389442;32;20054;-37
2021/05/24 05:02:36;;;;;;;3.87;1.85;;;29.90;39.20;;;;;;4389189;32;20058;-38
2021/05/24 05:05:05;;;;;;;6.05;2.40;;;29.90;39.00;;;;;;4389210;32;20522;-37
2021/05/24 05:07:31;;;;;;;4.68;2.28;;;29.80;38.80;;;;;;4375096;32;20088;-38
2021/05/24 05:09:58;;;;;;;2.65;1.65;;;29.70;38.70;;;;;;4389231;32;20066;-37
2021/05/24 05:12:26;;;;;;;5.55;1.95;;;29.60;38.70;;;;;;4389087;32;20085;-38
2021/05/24 05:14:53;;;;;;;11.65;1.85;;;29.50;38.80;;;;;;4374644;32;20105;-39
2021/05/24 05:17:19;;;;;;;5.93;2.58;;;29.40;38.90;;;;;;4375063;32;20054;-37
2021/05/24 05:19:46;;;;;;;3.90;1.92;;;29.30;39.00;;;;;;4375009;32;20563;-39
2021/05/24 05:22:12;;;;;;;7.72;3.25;;;29.20;39.20;;;;;;4402920;32;20065;-39
2021/05/24 05:24:39;;;;;;;5.53;2.03;;;28.90;39.30;;;;;;4404202;32;20196;-39
2021/05/24 05:27:05;;;;;;;3.92;2.28;;;28.90;39.60;;;;;;4390018;32;20062;-40
2021/05/24 05:29:32;;;;;;;6.20;1.70;;;28.70;39.80;;;;;;4390125;32;20092;-38
2021/05/24 05:31:58;;;;;;;4.10;1.95;;;28.70;40.00;;;;;;4404425;32;20124;-38
2021/05/24 05:34:24;;;;;;;3.35;2.15;;;28.80;40.10;;;;;;4404420;32;20053;-38
2021/05/24 05:36:51;;;;;;;6.12;2.08;;;28.90;39.80;;;;;;4403697;32;20060;-39
2021/05/24 05:39:18;;;;;;;6.47;2.33;;;28.90;39.50;;;;;;4403841;32;20085;-39
2021/05/24 05:41:44;;;;;;;6.37;1.58;;;29.10;39.30;;;;;;4403972;32;20509;-39
2021/05/24 05:44:11;;;;;;;7.75;1.55;;;29.30;39.20;;;;;;4404036;32;20505;-39
2021/05/24 05:46:37;;;;;;;3.67;1.40;;;29.40;39.10;;;;;;4403741;32;20057;-39
2021/05/24 05:49:04;;;;;;;3.40;2.70;;;29.50;38.90;;;;;;4389729;32;20124;-39
2021/05/24 05:51:30;;;;;;;2.30;1.25;;;29.60;38.30;;;;;;4403786;32;20061;-39
2021/05/24 05:53:57;;;;;;;5.35;2.12;;;29.70;38.30;;;;;;4403571;32;20075;-39
2021/05/24 05:56:24;;;;;;;3.75;1.92;;;29.80;37.90;;;;;;4403647;32;20093;-38
2021/05/24 05:58:50;;;;;;;5.53;2.03;;;29.80;37.80;;;;;;4389585;32;20061;-39
2021/05/24 06:01:17;;;;;;;8.70;1.77;;;29.70;37.50;;;;;;4403932;32;20499;-39
2021/05/24 06:03:43;;;;;;;4.80;3.03;;;29.60;37.80;;;;;;4389414;32;20620;-40
2021/05/24 06:06:12;;;;;;;3.95;1.35;;;29.60;37.50;;;;;;4403828;32;20073;-39
2021/05/24 06:08:39;;;;;;;3.62;1.45;;;29.50;37.80;;;;;;4403459;32;20192;-40
2021/05/24 06:11:06;;;;;;;7.12;1.02;;;29.50;38.10;;;;;;4403393;32;20527;-40
2021/05/24 06:13:33;;;;;;;3.15;1.50;;;29.50;38.10;;;;;;4403842;32;20069;-39
2021/05/24 06:15:59;;;;;;;4.05;2.12;;;29.60;37.30;;;;;;4403464;32;20070;-39
2021/05/24 06:18:26;;;;;;;2.05;1.67;;;29.50;36.70;;;;;;4403360;32;20097;-38
2021/05/24 06:20:52;;;;;;;7.53;1.30;;;29.50;37.00;;;;;;4383655;32;20048;-39
2021/05/24 06:23:19;;;;;;;2.45;1.85;;;29.40;37.00;;;;;;4388255;32;20065;-40
2021/05/24 06:25:45;;;;;;;4.25;2.42;;;29.40;37.00;;;;;;4387643;32;20105;-39
2021/05/24 06:28:12;;;;;;;6.72;2.72;;;29.30;36.80;;;;;;4387825;32;20586;-39
2021/05/24 06:30:40;;;;;;;4.20;2.33;;;29.20;37.00;;;;;;4388344;32;20439;-39
2021/05/24 06:33:06;;;;;;;5.60;2.15;;;29.00;37.30;;;;;;4374104;32;20076;-39
2021/05/24 06:35:33;;;;;;;4.90;1.83;;;29.00;37.40;;;;;;4388065;32;20088;-39
2021/05/24 06:37:59;;;;;;;3.87;1.80;;;28.90;37.30;;;;;;4387832;32;20066;-39
2021/05/24 06:40:26;;;;;;;5.87;2.22;;;28.90;37.40;;;;;;4388024;32;20264;-38
2021/05/24 06:42:53;;;;;;;2.83;1.50;;;28.80;37.60;;;;;;4387584;32;20145;-40
2021/05/24 06:45:19;;;;;;;9.63;2.22;;;28.80;37.80;;;;;;4387349;32;20149;-39
2021/05/24 06:47:46;;;;;;;3.03;2.12;;;28.90;37.90;;;;;;4387961;32;20529;-39
2021/05/24 06:50:14;;;;;;;4.57;2.58;;;28.90;37.90;;;;;;4388255;32;20065;-38
2021/05/24 06:52:41;;;;;;;1.25;0.98;;;29.00;37.90;;;;;;4388094;32;20069;-40
2021/05/24 06:55:08;;;;;;;5.00;2.87;;;29.10;37.90;;;;;;4387794;32;20069;-39
2021/05/24 06:57:35;;;;;;;3.42;1.62;;;29.10;37.70;;;;;;4387937;32;20142;-39
2021/05/24 07:00:10;;;;;;;3.35;2.65;;;29.20;37.80;;;;;;4388010;32;20062;-39
2021/05/24 07:02:38;;;;;;;6.37;2.72;;;29.20;37.70;;;;;;4388131;32;20077;-38
2021/05/24 07:05:06;;;;;;;2.50;1.98;;;29.40;37.70;;;;;;4387892;32;20061;-41
2021/05/24 07:07:32;;;;;;;2.17;1.05;;;29.50;37.80;;;;;;4387672;32;20069;-39
2021/05/24 07:09:59;;;;;;;2.78;1.87;;;29.70;37.70;;;;;;4373787;32;20143;-39
2021/05/24 07:12:25;;;;;;;5.80;1.55;;;29.80;37.20;;;;;;4387736;32;20074;-39
2021/05/24 07:14:54;;;;;;;5.40;2.03;;;30.00;37.10;;;;;;4387905;32;20485;-39
2021/05/24 07:17:21;;;;;;;6.35;2.65;;;30.00;36.90;;;;;;4387747;32;20518;-39
2021/05/24 07:19:47;;;;;;;2.78;1.73;;;30.10;37.10;;;;;;4373691;32;20547;-40
2021/05/24 07:22:14;;;;;;;2.40;1.90;;;30.30;36.70;;;;;;4401961;32;20065;-40
2021/05/24 07:24:40;;;;;;;3.58;2.60;;;30.40;36.30;;;;;;4402946;32;20491;-40
2021/05/24 07:27:07;;;;;;;6.20;1.50;;;30.60;36.20;;;;;;4402989;32;20080;-40
2021/05/24 07:29:33;;;;;;;1.35;0.85;;;30.80;36.20;;;;;;4402730;32;20078;-40
2021/05/24 07:32:00;;;;;;;3.92;2.22;;;31.00;35.90;;;;;;4402788;32;20111;-40
2021/05/24 07:34:26;;;;;;;3.75;2.55;;;31.20;35.60;;;;;;4403264;32;20089;-39
2021/05/24 07:36:53;;;;;;;8.85;3.87;;;31.40;35.30;;;;;;4388956;32;20069;-41
2021/05/24 07:39:19;;;;;;;9.00;2.83;;;31.50;35.10;;;;;;4405488;32;20096;-39
2021/05/24 07:41:46;;;;;;;8.85;1.85;;;31.70;34.90;;;;;;4405309;32;20078;-39
2021/05/24 07:44:13;;;;;;;3.05;2.83;;;31.80;34.70;;;;;;4405756;32;20073;-38
2021/05/24 07:46:39;;;;;;;4.07;1.40;;;31.90;34.60;;;;;;4391777;32;20150;-39
2021/05/24 07:49:06;;;;;;;2.53;2.33;;;32.00;34.50;;;;;;4405507;32;20530;-40
2021/05/24 07:51:32;;;;;;;3.80;3.25;;;32.00;34.30;;;;;;4405656;32;20177;-39
2021/05/24 07:53:59;;;;;;;2.00;1.33;;;32.10;34.20;;;;;;4405200;32;20528;-40
2021/05/24 07:56:25;;;;;;;3.78;1.90;;;32.20;34.20;;;;;;4405307;32;20062;-40
2021/05/24 07:58:52;;;;;;;5.10;1.83;;;32.30;34.10;;;;;;4405307;32;20525;-40
2021/05/24 08:01:18;;;;;;;3.60;2.45;;;32.40;33.70;;;;;;4405175;32;20073;-40
2021/05/24 08:03:44;;;;;;;2.12;2.03;;;32.50;33.60;;;;;;4405026;32;20513;-40
2021/05/24 08:06:11;;;;;;;5.68;1.92;;;32.60;33.70;;;;;;4405197;32;20140;-40
2021/05/24 08:08:37;;;;;;;5.00;2.17;;;32.60;33.70;;;;;;4405156;32;20578;-41
2021/05/24 08:11:04;;;;;;;1.42;1.25;;;32.70;33.30;;;;;;4404806;32;20567;-39
2021/05/24 08:13:30;;;;;;;4.00;2.08;;;32.70;33.20;;;;;;4404835;32;20073;-40
2021/05/24 08:15:57;;;;;;;7.45;3.60;;;32.60;33.20;;;;;;4404957;32;20097;-40
2021/05/24 08:18:23;;;;;;;2.25;1.33;;;32.70;33.30;;;;;;4405281;32;20533;-40
2021/05/24 08:20:50;;;;;;;1.95;1.23;;;32.60;33.40;;;;;;4399651;32;20543;-41
2021/05/24 08:23:17;;;;;;;3.78;1.98;;;32.70;33.50;;;;;;4389816;32;20109;-40
2021/05/24 08:25:43;;;;;;;6.87;3.53;;;32.70;33.10;;;;;;4363442;32;20068;-40
2021/05/24 08:28:10;;;;;;;2.10;1.40;;;32.80;33.30;;;;;;4389927;32;20053;-39
2021/05/24 08:30:37;;;;;;;7.72;3.42;;;32.80;33.20;;;;;;4389846;32;20151;-39
2021/05/24 08:33:03;;;;;;;2.92;2.00;;;32.80;33.20;;;;;;4389422;32;20155;-39
2021/05/24 08:35:30;;;;;;;1.37;0.75;;;32.70;33.30;;;;;;4389171;32;20070;-39
2021/05/24 08:37:56;;;;;;;1.45;1.25;;;32.70;33.40;;;;;;4389232;32;20159;-40
2021/05/24 08:40:23;;;;;;;3.05;2.40;;;32.80;33.40;;;;;;4375672;32;20185;-40
2021/05/24 08:42:50;;;;;;;4.53;2.42;;;32.90;33.20;;;;;;4389677;32;20150;-40
2021/05/24 08:45:17;;;;;;;4.40;0.85;;;32.90;33.10;;;;;;4389753;32;20082;-39
2021/05/24 08:47:44;;;;;;;2.67;1.75;;;33.00;33.10;;;;;;4389500;32;20510;-39
2021/05/24 08:50:12;;;;;;;3.85;0.82;;;33.10;33.00;;;;;;4388637;32;20145;-40
2021/05/24 08:52:38;;;;;;;3.12;1.20;;;33.10;32.90;;;;;;4389830;32;20068;-40
2021/05/24 08:55:05;;;;;;;7.07;2.90;;;33.00;32.80;;;;;;4389503;32;20066;-40
2021/05/24 08:57:36;;;;;;;4.37;0.95;;;33.10;32.90;;;;;;4375273;32;20097;-40
2021/05/24 09:00:06;;;;;;;2.10;1.85;;;33.10;32.90;;;;;;4389160;32;20073;-40
2021/05/24 09:02:33;;;;;;;4.68;2.05;;;33.10;32.90;;;;;;4389281;32;20537;-41
2021/05/24 09:05:05;;;;;;;4.90;2.53;;;33.20;32.90;;;;;;4375341;32;20090;-42
2021/05/24 09:07:33;;;;;;;8.82;3.00;;;33.30;32.90;;;;;;4375489;32;20085;-40
2021/05/24 09:10:06;;;;;;;3.45;2.10;;;33.40;32.90;;;;;;4350753;32;20068;-42
2021/05/24 09:12:33;;;;;;;2.80;1.12;;;33.50;32.30;;;;;;4389130;32;20157;-40
2021/05/24 09:15:13;;;;;;;2.05;1.02;;;33.70;32.30;;;;;;4374789;32;20193;-41
2021/05/24 09:17:58;;;;;;;11.07;1.10;;;33.70;31.90;;;;;;4375117;32;20058;-40
2021/05/24 09:20:24;;;;;;;2.67;0.52;;;33.70;31.80;;;;;;4392230;32;20571;-41
2021/05/24 09:23:22;;;;;;;1.95;1.20;;;33.70;31.40;;;;;;4404849;32;20534;-41
2021/05/24 09:25:59;;;;;;;1.95;0.88;;;33.60;31.50;;;;;;4404161;32;20152;-40
2021/05/24 09:28:31;;;;;;;1.80;1.15;;;33.50;31.30;;;;;;4404788;32;20477;-39
2021/05/24 09:31:16;;;;;;;2.40;0.50;;;33.30;31.30;;;;;;4404376;32;20069;-40
2021/05/24 09:33:46;;;;;;;3.25;1.33;;;33.20;31.60;;;;;;4405161;32;20064;-40
2021/05/24 09:36:12;;;;;;;0.90;0.50;;;33.10;31.90;;;;;;4404626;32;20070;-40
2021/05/24 09:38:52;;;;;;;1.48;0.68;;;33.00;32.20;;;;;;4403419;32;20184;-39
2021/05/24 09:41:21;;;;;;;3.92;1.02;;;33.00;32.20;;;;;;4404170;32;20064;-41
2021/05/24 09:43:49;;;;;;;12.30;0.95;;;32.90;32.30;;;;;;4403554;32;20118;-39
2021/05/24 09:46:23;;;;;;;2.55;0.68;;;32.90;32.60;;;;;;4404352;32;20073;-41
2021/05/24 09:48:52;;;;;;;1.40;0.50;;;32.90;32.30;;;;;;4403922;32;20069;-39
2021/05/24 09:51:25;;;;;;;0.73;0.50;;;32.90;32.20;;;;;;4404000;32;20062;-39
2021/05/24 09:54:13;;;;;;;2.70;1.02;;;33.00;32.50;;;;;;4403495;32;20126;-41
2021/05/24 09:56:43;;;;;;;1.95;0.95;;;33.00;32.60;;;;;;4389858;32;20085;-40
2021/05/24 09:59:13;;;;;;;2.97;1.35;;;33.00;32.50;;;;;;4377656;32;20134;-40
2021/05/24 10:01:43;;;;;;;5.82;1.20;;;33.00;32.30;;;;;;4377361;32;20153;-40
2021/05/24 10:04:12;;;;;;;4.05;1.20;;;33.10;32.50;;;;;;4389422;32;20173;-40
2021/05/24 10:06:39;;;;;;;4.70;1.00;;;33.20;32.70;;;;;;4342975;32;20096;-41
2021/05/24 10:09:07;;;;;;;2.92;1.10;;;33.30;32.50;;;;;;4343472;32;20066;-41
2021/05/24 10:11:40;;;;;;;3.85;0.93;;;33.30;32.10;;;;;;4355495;32;20059;-41
2021/05/24 10:14:07;;;;;;;8.02;1.20;;;33.40;32.30;;;;;;4355817;32;20156;-41
2021/05/24 10:16:37;;;;;;;3.75;0.95;;;33.50;31.70;;;;;;4355728;32;20055;-40
2021/05/24 10:19:05;;;;;;;2.42;1.30;;;33.60;31.80;;;;;;4355486;32;20153;-40
2021/05/24 10:21:32;;;;;;;2.75;1.45;;;33.70;31.50;;;;;;4355479;32;20159;-41
2021/05/24 10:23:59;;;;;;;5.12;1.00;;;33.80;31.40;;;;;;4355396;32;20051;-40
2021/05/24 10:26:26;;;;;;;1.37;0.73;;;33.90;31.30;;;;;;4355558;32;20062;-40
2021/05/24 10:28:53;;;;;;;0.98;0.80;;;34.10;31.50;;;;;;4355667;32;20497;-40
2021/05/24 10:31:25;;;;;;;2.15;0.40;;;34.30;31.10;;;;;;4343125;32;20126;-39
2021/05/24 10:33:52;;;;;;;5.62;0.70;;;34.40;31.00;;;;;;4356079;32;20149;-40
2021/05/24 10:36:32;;;;;;;0.80;0.65;;;34.50;31.10;;;;;;4355412;32;20073;-40
2021/05/24 10:39:05;;;;;;;7.07;0.60;;;34.60;30.80;;;;;;4355397;32;20120;-40
2021/05/24 10:41:55;;;;;;;5.37;0.90;;;34.80;30.90;;;;;;4355810;32;20296;-40
2021/05/24 10:44:36;;;;;;;1.05;0.30;;;34.90;30.60;;;;;;4375181;32;20101;-40
2021/05/24 10:47:25;;;;;;;1.75;0.90;;;35.00;30.70;;;;;;4387918;32;20167;-40
2021/05/24 10:50:06;;;;;;;1.27;0.50;;;35.20;30.00;;;;;;4373791;32;20096;-39
2021/05/24 10:52:38;;;;;;;1.85;0.70;;;35.20;29.90;;;;;;4387969;32;20153;-40
2021/05/24 10:55:26;;;;;;;1.62;0.50;;;35.10;30.00;;;;;;4370115;32;20086;-40
2021/05/24 10:58:02;;;;;;;5.55;0.50;;;35.20;30.00;;;;;;4370117;32;20057;-39
2021/05/24 11:00:55;;;;;;;0.85;0.50;;;35.20;29.90;;;;;;4370322;32;20211;-40
2021/05/24 11:03:22;;;;;;;5.25;0.35;;;35.20;29.90;;;;;;4360699;32;20062;-40
2021/05/24 11:06:15;;;;;;;0.95;0.60;;;35.30;30.00;;;;;;4370180;32;20104;-42
2021/05/24 11:08:50;;;;;;;1.77;0.82;;;35.40;30.00;;;;;;4370515;32;20098;-40
2021/05/24 11:11:29;;;;;;;1.05;0.40;;;35.30;29.90;;;;;;4370089;32;20065;-40
2021/05/24 11:14:05;;;;;;;2.65;0.60;;;35.40;29.40;;;;;;4373186;32;20136;-40
2021/05/24 11:16:33;;;;;;;0.62;0.50;;;35.40;28.90;;;;;;4373621;32;20073;-40
2021/05/24 11:19:10;;;;;;;1.70;0.47;;;35.40;28.50;;;;;;4373370;32;20482;-41
2021/05/24 11:21:38;;;;;;;0.68;0.50;;;35.40;28.20;;;;;;4373457;32;20172;-40
2021/05/24 11:27:01;;;;;;;0.68;0.40;;;35.40;28.10;;;;;;4361654;32;20179;-41
2021/05/24 11:29:27;;;;;;;0.30;0.30;;;35.50;28.20;;;;;;4360706;32;20517;-41
2021/05/24 11:31:56;;;;;;;0.37;0.30;;;35.50;28.60;;;;;;4377370;32;20066;-41
2021/05/24 11:34:36;;;;;;;4.70;0.40;;;35.40;27.90;;;;;;4390498;32;20134;-40
2021/05/24 11:37:10;;;;;;;2.80;0.30;;;35.50;28.10;;;;;;4390682;32;20077;-41
2021/05/24 11:39:49;;;;;;;0.90;0.70;;;35.40;28.30;;;;;;4376809;32;20081;-42
2021/05/24 11:42:29;;;;;;;5.47;0.68;;;35.60;28.40;;;;;;4376383;32;20060;-41
2021/05/24 11:45:00;;;;;;;1.85;0.60;;;35.50;28.60;;;;;;4390468;32;20144;-40
2021/05/24 11:47:28;;;;;;;4.87;0.70;;;35.60;28.80;;;;;;4375724;32;20074;-41
2021/05/24 11:49:56;;;;;;;1.65;0.90;;;35.60;28.80;;;;;;4387822;32;20061;-39
2021/05/24 11:52:25;;;;;;;1.58;0.60;;;35.60;28.70;;;;;;4375386;32;20469;-41
2021/05/24 11:54:52;;;;;;;1.62;0.70;;;35.60;28.60;;;;;;4387970;32;20115;-40
2021/05/24 11:57:22;;;;;;;0.88;0.50;;;35.70;28.50;;;;;;4374872;32;20560;-41
2021/05/24 11:59:48;;;;;;;0.50;0.30;;;35.60;28.40;;;;;;4387780;32;20093;-40
2021/05/24 12:02:15;;;;;;;1.17;0.90;;;35.60;28.60;;;;;;4387738;32;20108;-39
2021/05/24 12:04:45;;;;;;;2.65;0.40;;;35.60;28.90;;;;;;4374659;32;20148;-39
2021/05/24 12:07:17;;;;;;;0.82;0.30;;;35.50;29.00;;;;;;4387417;32;20131;-40
2021/05/24 12:09:53;;;;;;;3.42;0.50;;;35.40;29.60;;;;;;4375191;32;20501;-40
2021/05/24 12:12:29;;;;;;;3.60;0.60;;;35.30;29.20;;;;;;4387637;32;20161;-41
2021/05/24 12:15:07;;;;;;;0.90;0.35;;;35.30;29.20;;;;;;4387940;32;20493;-40
2021/05/24 12:17:35;;;;;;;3.80;0.50;;;35.20;29.10;;;;;;4356833;32;20154;-40
2021/05/24 12:20:11;;;;;;;9.18;0.90;;;35.10;29.10;;;;;;4357623;32;20077;-39
2021/05/24 12:22:41;;;;;;;4.20;0.40;;;35.10;29.30;;;;;;4359502;32;20059;-40
2021/05/24 12:25:09;;;;;;;1.35;0.40;;;34.90;29.30;;;;;;4371826;32;20196;-40
2021/05/24 12:27:36;;;;;;;4.15;0.70;;;34.80;29.70;;;;;;4360011;32;20066;-39
2021/05/24 12:30:44;;;;;;;1.42;0.35;;;34.70;30.10;;;;;;4372401;32;20077;-40
2021/05/24 12:33:11;;;;;;;3.85;0.70;;;34.40;30.40;;;;;;4327370;33;20059;-53
2021/05/24 12:35:44;;;;;;;0.40;0.32;;;34.10;30.80;;;;;;4315142;33;20098;-40
2021/05/24 12:39:11;;;;;;;4.07;0.62;;;33.90;31.00;;;;;;4327355;33;20075;-41
2021/05/24 12:41:06;;;;;;;1.15;0.50;;;33.90;30.50;;;;;;4320857;33;20071;-40
2021/05/24 12:43:33;;;;;;;3.45;0.43;;;33.80;31.50;;;;;;4314967;33;20086;-40
2021/05/24 12:46:00;;;;;;;2.67;0.50;;;33.70;30.60;;;;;;4327102;33;20174;-39
2021/05/24 12:48:30;;;;;;;2.10;0.60;;;33.70;30.70;;;;;;4333880;33;20063;-39
2021/05/24 12:50:57;;;;;;;2.85;0.50;;;33.70;30.80;;;;;;4342546;33;20082;-40
2021/05/24 12:53:26;;;;;;;1.75;0.50;;;33.70;30.80;;;;;;4342168;32;20575;-38